sensor_id;sensor_type;location;lat;lon;timestamp;pressure;altitude;pressure_sealevel;temperature;humidity
5296;BME280;2670;42.720;23.336;2022-09-04T00:00:19;-22923.91;;;16.60;100.00
5296;BME280;2670;42.720;23.336;2022-09-04T00:02:58;-22927.28;;;16.72;100.00
5296;BME280;2670;42.720;23.336;2022-09-04T00:05:29;-22924.50;;;16.62;100.00
5296;BME280;2670;42.720;23.336;2022-09-04T00:08:20;-22922.16;;;16.54;100.00
5296;BME280;2670;42.720;23.336;2022-09-04T00:10:55;-22922.88;;;16.56;100.00
5296;BME280;2670;42.720;23.336;2022-09-04T00:13:30;-22919.06;;;16.43;100.00
5296;BME280;2670;42.720;23.336;2022-09-04T00:16:05;-22916.72;;;16.35;100.00
5296;BME280;2670;42.720;23.336;2022-09-04T00:18:36;-22915.22;;;16.30;100.00
5296;BME280;2670;42.720;23.336;2022-09-04T00:21:13;-22911.69;;;16.17;100.00
5296;BME280;2670;42.720;23.336;2022-09-04T00:23:46;-22910.38;;;16.13;100.00
5296;BME280;2670;42.720;23.336;2022-09-04T00:26:24;-22909.66;;;16.10;100.00
5296;BME280;2670;42.720;23.336;2022-09-04T00:28:56;-22908.03;;;16.05;100.00
5296;BME280;2670;42.720;23.336;2022-09-04T00:31:28;-22908.47;;;16.06;100.00
5296;BME280;2670;42.720;23.336;2022-09-04T00:34:05;-22905.81;;;15.97;100.00
5296;BME280;2670;42.720;23.336;2022-09-04T00:36:38;-22903.03;;;15.87;100.00
5296;BME280;2670;42.720;23.336;2022-09-04T00:39:09;-22902.72;;;15.86;100.00
5296;BME280;2670;42.720;23.336;2022-09-04T00:41:49;-22900.97;;;15.80;100.00
5296;BME280;2670;42.720;23.336;2022-09-04T00:44:40;-22903.91;;;15.90;100.00
5296;BME280;2670;42.720;23.336;2022-09-04T00:47:36;-22902.59;;;15.86;100.00
5296;BME280;2670;42.720;23.336;2022-09-04T00:50:31;-22904.19;;;15.91;100.00
5296;BME280;2670;42.720;23.336;2022-09-04T00:56:16;-22904.06;;;15.91;100.00
5296;BME280;2670;42.720;23.336;2022-09-04T00:59:00;-22903.31;;;15.88;100.00
5296;BME280;2670;42.720;23.336;2022-09-04T01:01:29;-22902.72;;;15.86;100.00
5296;BME280;2670;42.720;23.336;2022-09-04T01:04:17;-22903.16;;;15.88;100.00
5296;BME280;2670;42.720;23.336;2022-09-04T01:06:59;-22903.63;;;15.89;100.00
5296;BME280;2670;42.720;23.336;2022-09-04T01:09:45;-22904.94;;;15.94;100.00
5296;BME280;2670;42.720;23.336;2022-09-04T01:12:27;-22903.91;;;15.90;100.00
5296;BME280;2670;42.720;23.336;2022-09-04T01:15:07;-22908.31;;;16.06;100.00
5296;BME280;2670;42.720;23.336;2022-09-04T01:17:50;-22908.03;;;16.05;100.00
5296;BME280;2670;42.720;23.336;2022-09-04T01:20:26;-22903.75;;;15.90;100.00
5296;BME280;2670;42.720;23.336;2022-09-04T01:23:17;-22899.78;;;15.76;100.00
5296;BME280;2670;42.720;23.336;2022-09-04T01:26:05;-22899.50;;;15.75;100.00
5296;BME280;2670;42.720;23.336;2022-09-04T01:28:38;-22898.63;;;15.72;100.00
5296;BME280;2670;42.720;23.336;2022-09-04T01:31:15;-22899.63;;;15.76;100.00
5296;BME280;2670;42.720;23.336;2022-09-04T01:33:52;-22902.72;;;15.86;100.00
5296;BME280;2670;42.720;23.336;2022-09-04T01:36:31;-22901.56;;;15.82;100.00
5296;BME280;2670;42.720;23.336;2022-09-04T01:39:01;-22896.41;;;15.64;100.00
5296;BME280;2670;42.720;23.336;2022-09-04T01:41:32;-22893.31;;;15.54;100.00
5296;BME280;2670;42.720;23.336;2022-09-04T01:44:04;-22896.56;;;15.65;100.00
5296;BME280;2670;42.720;23.336;2022-09-04T01:46:45;-22897.72;;;15.69;100.00
5296;BME280;2670;42.720;23.336;2022-09-04T01:49:24;-22894.63;;;15.58;100.00
5296;BME280;2670;42.720;23.336;2022-09-04T01:52:01;-22891.97;;;15.49;100.00
5296;BME280;2670;42.720;23.336;2022-09-04T01:54:45;-22890.50;;;15.44;100.00
5296;BME280;2670;42.720;23.336;2022-09-04T02:00:11;-22891.84;;;15.49;100.00
5296;BME280;2670;42.720;23.336;2022-09-04T02:02:58;-22895.94;;;15.63;100.00
5296;BME280;2670;42.720;23.336;2022-09-04T02:05:32;-22893.59;;;15.55;100.00
5296;BME280;2670;42.720;23.336;2022-09-04T02:08:18;-22891.25;;;15.47;100.00
5296;BME280;2670;42.720;23.336;2022-09-04T02:10:55;-22891.38;;;15.47;100.00
5296;BME280;2670;42.720;23.336;2022-09-04T02:13:33;-22892.72;;;15.52;100.00
5296;BME280;2670;42.720;23.336;2022-09-04T02:16:14;-22894.94;;;15.59;100.00
5296;BME280;2670;42.720;23.336;2022-09-04T02:18:49;-22894.94;;;15.59;100.00
5296;BME280;2670;42.720;23.336;2022-09-04T02:21:25;-22898.63;;;15.72;100.00
5296;BME280;2670;42.720;23.336;2022-09-04T02:23:59;-22899.34;;;15.75;100.00
5296;BME280;2670;42.720;23.336;2022-09-04T02:26:34;-22902.28;;;15.85;100.00
5296;BME280;2670;42.720;23.336;2022-09-04T02:29:09;-22896.69;;;15.65;100.00
5296;BME280;2670;42.720;23.336;2022-09-04T02:31:45;-22898.31;;;15.71;100.00
5296;BME280;2670;42.720;23.336;2022-09-04T02:34:20;-22898.91;;;15.73;100.00
5296;BME280;2670;42.720;23.336;2022-09-04T02:36:52;-22894.03;;;15.56;100.00
5296;BME280;2670;42.720;23.336;2022-09-04T02:39:34;-22895.06;;;15.60;100.00
5296;BME280;2670;42.720;23.336;2022-09-04T02:42:12;-22891.97;;;15.49;100.00
5296;BME280;2670;42.720;23.336;2022-09-04T02:44:52;-22893.00;;;15.53;100.00
5296;BME280;2670;42.720;23.336;2022-09-04T02:47:29;-22894.03;;;15.56;100.00
5296;BME280;2670;42.720;23.336;2022-09-04T02:49:59;-22893.00;;;15.53;100.00
5296;BME280;2670;42.720;23.336;2022-09-04T02:52:45;-22892.88;;;15.52;100.00
5296;BME280;2670;42.720;23.336;2022-09-04T02:55:26;-22892.41;;;15.51;100.00
5296;BME280;2670;42.720;23.336;2022-09-04T02:58:05;-22893.75;;;15.55;100.00
5296;BME280;2670;42.720;23.336;2022-09-04T03:00:46;-22890.50;;;15.44;100.00
5296;BME280;2670;42.720;23.336;2022-09-04T03:03:17;-22885.06;;;15.25;100.00
5296;BME280;2670;42.720;23.336;2022-09-04T03:05:50;-22880.50;;;15.09;100.00
5296;BME280;2670;42.720;23.336;2022-09-04T03:08:24;-22882.84;;;15.17;100.00
5296;BME280;2670;42.720;23.336;2022-09-04T03:10:59;-22886.09;;;15.29;100.00
5296;BME280;2670;42.720;23.336;2022-09-04T03:13:33;-22891.84;;;15.49;100.00
5296;BME280;2670;42.720;23.336;2022-09-04T03:16:11;-22887.56;;;15.34;100.00
5296;BME280;2670;42.720;23.336;2022-09-04T03:18:55;-22886.22;;;15.29;100.00
5296;BME280;2670;42.720;23.336;2022-09-04T03:21:32;-22892.13;;;15.50;100.00
5296;BME280;2670;42.720;23.336;2022-09-04T03:24:04;-22892.41;;;15.51;100.00
5296;BME280;2670;42.720;23.336;2022-09-04T03:26:34;-22890.34;;;15.43;100.00
5296;BME280;2670;42.720;23.336;2022-09-04T03:29:04;-22891.38;;;15.47;100.00
5296;BME280;2670;42.720;23.336;2022-09-04T03:31:44;-22886.53;;;15.30;100.00
5296;BME280;2670;42.720;23.336;2022-09-04T03:34:27;-22885.78;;;15.28;100.00
5296;BME280;2670;42.720;23.336;2022-09-04T03:37:13;-22884.47;;;15.23;100.00
5296;BME280;2670;42.720;23.336;2022-09-04T03:39:52;-22882.84;;;15.17;100.00
5296;BME280;2670;42.720;23.336;2022-09-04T03:42:32;-22883.00;;;15.18;100.00
5296;BME280;2670;42.720;23.336;2022-09-04T03:45:10;-22884.75;;;15.24;100.00
5296;BME280;2670;42.720;23.336;2022-09-04T03:47:52;-22882.84;;;15.17;100.00
5296;BME280;2670;42.720;23.336;2022-09-04T03:50:30;-22887.13;;;15.32;100.00
5296;BME280;2670;42.720;23.336;2022-09-04T03:53:06;-22885.19;;;15.26;100.00
5296;BME280;2670;42.720;23.336;2022-09-04T03:55:56;-22886.38;;;15.30;100.00
5296;BME280;2670;42.720;23.336;2022-09-04T03:58:35;-22886.53;;;15.30;100.00
5296;BME280;2670;42.720;23.336;2022-09-04T04:01:09;-22890.66;;;15.44;100.00
5296;BME280;2670;42.720;23.336;2022-09-04T04:03:51;-22890.66;;;15.44;100.00
5296;BME280;2670;42.720;23.336;2022-09-04T04:06:29;-22890.94;;;15.45;100.00
5296;BME280;2670;42.720;23.336;2022-09-04T04:09:11;-22891.38;;;15.47;100.00
5296;BME280;2670;42.720;23.336;2022-09-04T04:11:49;-22887.72;;;15.34;100.00
5296;BME280;2670;42.720;23.336;2022-09-04T04:14:30;-22888.16;;;15.36;100.00
5296;BME280;2670;42.720;23.336;2022-09-04T04:17:13;-22890.81;;;15.45;100.00
5296;BME280;2670;42.720;23.336;2022-09-04T04:19:52;-22889.19;;;15.39;100.00
5296;BME280;2670;42.720;23.336;2022-09-04T04:22:43;-22886.09;;;15.29;100.00
5296;BME280;2670;42.720;23.336;2022-09-04T04:25:41;-22891.25;;;15.47;100.00
5296;BME280;2670;42.720;23.336;2022-09-04T04:28:25;-22889.31;;;15.40;100.00
5296;BME280;2670;42.720;23.336;2022-09-04T04:31:05;-22885.94;;;15.28;100.00
5296;BME280;2670;42.720;23.336;2022-09-04T04:33:49;-22882.69;;;15.17;100.00
5296;BME280;2670;42.720;23.336;2022-09-04T04:36:26;-22880.34;;;15.09;100.00
5296;BME280;2670;42.720;23.336;2022-09-04T04:39:10;-22882.13;;;15.15;100.00
5296;BME280;2670;42.720;23.336;2022-09-04T04:41:50;-22881.66;;;15.13;100.00
5296;BME280;2670;42.720;23.336;2022-09-04T04:44:50;-22889.19;;;15.39;100.00
5296;BME280;2670;42.720;23.336;2022-09-04T04:50:37;-22891.69;;;15.48;100.00
5296;BME280;2670;42.720;23.336;2022-09-04T04:53:14;-22892.72;;;15.52;100.00
5296;BME280;2670;42.720;23.336;2022-09-04T04:55:49;-22891.38;;;15.47;100.00
5296;BME280;2670;42.720;23.336;2022-09-04T04:58:45;-22890.94;;;15.45;100.00
5296;BME280;2670;42.720;23.336;2022-09-04T05:01:27;-22887.72;;;15.34;100.00
5296;BME280;2670;42.720;23.336;2022-09-04T05:04:08;-22887.41;;;15.33;100.00
5296;BME280;2670;42.720;23.336;2022-09-04T05:06:40;-22883.00;;;15.18;100.00
5296;BME280;2670;42.720;23.336;2022-09-04T05:09:15;-22885.06;;;15.25;100.00
5296;BME280;2670;42.720;23.336;2022-09-04T05:11:56;-22885.06;;;15.25;100.00
5296;BME280;2670;42.720;23.336;2022-09-04T05:14:35;-22888.28;;;15.36;100.00
5296;BME280;2670;42.720;23.336;2022-09-04T05:17:13;-22885.50;;;15.27;100.00
5296;BME280;2670;42.720;23.336;2022-09-04T05:19:46;-22884.03;;;15.22;100.00
5296;BME280;2670;42.720;23.336;2022-09-04T05:22:23;-22886.38;;;15.30;100.00
5296;BME280;2670;42.720;23.336;2022-09-04T05:25:01;-22885.19;;;15.26;100.00
5296;BME280;2670;42.720;23.336;2022-09-04T05:27:55;-22885.34;;;15.26;100.00
5296;BME280;2670;42.720;23.336;2022-09-04T05:30:31;-22885.94;;;15.28;100.00
5296;BME280;2670;42.720;23.336;2022-09-04T05:33:07;-22886.97;;;15.32;100.00
5296;BME280;2670;42.720;23.336;2022-09-04T05:35:44;-22890.66;;;15.44;100.00
5296;BME280;2670;42.720;23.336;2022-09-04T05:38:18;-22888.59;;;15.37;100.00
5296;BME280;2670;42.720;23.336;2022-09-04T05:41:05;-22890.66;;;15.44;100.00
5296;BME280;2670;42.720;23.336;2022-09-04T05:43:51;-22889.19;;;15.39;100.00
5296;BME280;2670;42.720;23.336;2022-09-04T05:46:35;-22888.59;;;15.37;100.00
5296;BME280;2670;42.720;23.336;2022-09-04T05:49:15;-22889.91;;;15.42;100.00
5296;BME280;2670;42.720;23.336;2022-09-04T05:58:00;-22892.88;;;15.52;100.00
5296;BME280;2670;42.720;23.336;2022-09-04T06:00:41;-22892.13;;;15.50;100.00
5296;BME280;2670;42.720;23.336;2022-09-04T06:03:27;-22894.19;;;15.57;100.00
5296;BME280;2670;42.720;23.336;2022-09-04T06:06:13;-22895.38;;;15.61;100.00
5296;BME280;2670;42.720;23.336;2022-09-04T06:09:14;-22901.41;;;15.82;100.00
5296;BME280;2670;42.720;23.336;2022-09-04T06:11:59;-22896.25;;;15.64;100.00
5296;BME280;2670;42.720;23.336;2022-09-04T06:17:35;-22897.13;;;15.67;100.00
5296;BME280;2670;42.720;23.336;2022-09-04T06:20:24;-22896.69;;;15.65;100.00
5296;BME280;2670;42.720;23.336;2022-09-04T06:23:32;-22899.50;;;15.75;100.00
5296;BME280;2670;42.720;23.336;2022-09-04T06:26:38;-22898.47;;;15.72;100.00
5296;BME280;2670;42.720;23.336;2022-09-04T06:29:33;-22900.81;;;15.80;100.00
5296;BME280;2670;42.720;23.336;2022-09-04T06:32:16;-22902.44;;;15.85;100.00
5296;BME280;2670;42.720;23.336;2022-09-04T06:35:07;-22898.91;;;15.73;100.00
5296;BME280;2670;42.720;23.336;2022-09-04T06:37:42;-22901.25;;;15.81;100.00
5296;BME280;2670;42.720;23.336;2022-09-04T06:40:27;-22901.69;;;15.83;100.00
5296;BME280;2670;42.720;23.336;2022-09-04T06:43:10;-22903.91;;;15.90;100.00
5296;BME280;2670;42.720;23.336;2022-09-04T06:45:49;-22903.16;;;15.88;100.00
5296;BME280;2670;42.720;23.336;2022-09-04T06:48:29;-22900.38;;;15.78;100.00
5296;BME280;2670;42.720;23.336;2022-09-04T06:51:10;-22901.69;;;15.83;100.00
5296;BME280;2670;42.720;23.336;2022-09-04T06:53:49;-22903.16;;;15.88;100.00
5296;BME280;2670;42.720;23.336;2022-09-04T06:56:52;-22901.84;;;15.83;100.00
5296;BME280;2670;42.720;23.336;2022-09-04T06:59:45;-22905.53;;;15.96;100.00
5296;BME280;2670;42.720;23.336;2022-09-04T07:02:27;-22907.16;;;16.02;100.00
5296;BME280;2670;42.720;23.336;2022-09-04T07:05:09;-22912.16;;;16.19;100.00
5296;BME280;2670;42.720;23.336;2022-09-04T07:07:47;-22911.25;;;16.16;100.00
5296;BME280;2670;42.720;23.336;2022-09-04T07:10:23;-22913.75;;;16.25;100.00
5296;BME280;2670;42.720;23.336;2022-09-04T07:13:18;-22919.06;;;16.43;100.00
5296;BME280;2670;42.720;23.336;2022-09-04T07:16:13;-22916.13;;;16.33;100.00
5296;BME280;2670;42.720;23.336;2022-09-04T07:19:06;-22917.16;;;16.36;100.00
5296;BME280;2670;42.720;23.336;2022-09-04T07:21:43;-22918.63;;;16.41;100.00
5296;BME280;2670;42.720;23.336;2022-09-04T07:24:47;-22917.72;;;16.38;100.00
5296;BME280;2670;42.720;23.336;2022-09-04T07:27:29;-22917.28;;;16.37;100.00
5296;BME280;2670;42.720;23.336;2022-09-04T07:30:02;-22922.00;;;16.53;100.00
5296;BME280;2670;42.720;23.336;2022-09-04T07:32:35;-22924.94;;;16.63;100.00
5296;BME280;2670;42.720;23.336;2022-09-04T07:35:10;-22923.91;;;16.60;100.00
5296;BME280;2670;42.720;23.336;2022-09-04T07:37:47;-22923.91;;;16.60;100.00
5296;BME280;2670;42.720;23.336;2022-09-04T07:40:21;-22924.78;;;16.63;100.00
5296;BME280;2670;42.720;23.336;2022-09-04T07:42:53;-22922.16;;;16.54;100.00
5296;BME280;2670;42.720;23.336;2022-09-04T07:45:28;-22924.78;;;16.63;100.00
5296;BME280;2670;42.720;23.336;2022-09-04T07:48:07;-22925.69;;;16.66;100.00
5296;BME280;2670;42.720;23.336;2022-09-04T07:50:47;-22929.78;;;16.80;100.00
5296;BME280;2670;42.720;23.336;2022-09-04T07:53:24;-22931.41;;;16.86;100.00
5296;BME280;2670;42.720;23.336;2022-09-04T07:55:59;-22935.97;;;17.02;100.00
5296;BME280;2670;42.720;23.336;2022-09-04T08:01:41;-22937.75;;;17.08;100.00
5296;BME280;2670;42.720;23.336;2022-09-04T08:04:27;-22940.81;;;17.18;100.00
5296;BME280;2670;42.720;23.336;2022-09-04T08:07:02;-22945.09;;;17.33;100.00
5296;BME280;2670;42.720;23.336;2022-09-04T08:09:40;-22940.69;;;17.18;100.00
5296;BME280;2670;42.720;23.336;2022-09-04T08:12:39;-22942.88;;;17.26;100.00
5296;BME280;2670;42.720;23.336;2022-09-04T08:15:15;-22946.69;;;17.39;100.00
5296;BME280;2670;42.720;23.336;2022-09-04T08:17:56;-22948.91;;;17.47;100.00
5296;BME280;2670;42.720;23.336;2022-09-04T08:20:41;-22950.06;;;17.51;100.00
5296;BME280;2670;42.720;23.336;2022-09-04T08:26:22;-22954.91;;;17.67;100.00
5296;BME280;2670;42.720;23.336;2022-09-04T08:29:05;-22957.44;;;17.76;100.00
5296;BME280;2670;42.720;23.336;2022-09-04T08:31:40;-22959.34;;;17.83;100.00
5296;BME280;2670;42.720;23.336;2022-09-04T08:34:25;-22967.25;;;18.10;100.00
5296;BME280;2670;42.720;23.336;2022-09-04T08:36:58;-22970.19;;;18.21;100.00
5296;BME280;2670;42.720;23.336;2022-09-04T08:39:37;-22971.97;;;18.27;100.00
5296;BME280;2670;42.720;23.336;2022-09-04T08:42:36;-22974.88;;;18.37;100.00
5296;BME280;2670;42.720;23.336;2022-09-04T08:45:37;-22982.50;;;18.63;100.00
5296;BME280;2670;42.720;23.336;2022-09-04T08:51:44;-22985.31;;;18.73;100.00
5296;BME280;2670;42.720;23.336;2022-09-04T08:54:44;-22990.72;;;18.92;100.00
5296;BME280;2670;42.720;23.336;2022-09-04T08:57:41;-22991.75;;;18.96;100.00
5296;BME280;2670;42.720;23.336;2022-09-04T09:00:15;-22993.22;;;19.01;100.00
5296;BME280;2670;42.720;23.336;2022-09-04T09:06:36;-23002.59;;;19.33;100.00
5296;BME280;2670;42.720;23.336;2022-09-04T09:12:34;-23009.78;;;19.58;100.00
5296;BME280;2670;42.720;23.336;2022-09-04T09:15:28;-23015.78;;;19.79;100.00
5296;BME280;2670;42.720;23.336;2022-09-04T09:18:01;-23016.69;;;19.82;100.00
5296;BME280;2670;42.720;23.336;2022-09-04T09:20:29;-23020.91;;;19.97;100.00
5296;BME280;2670;42.720;23.336;2022-09-04T09:23:15;-23023.25;;;20.05;100.00
5296;BME280;2670;42.720;23.336;2022-09-04T09:25:48;-23025.91;;;20.14;100.00
5296;BME280;2670;42.720;23.336;2022-09-04T09:54:06;-23042.44;;;20.72;100.00
5296;BME280;2670;42.720;23.336;2022-09-04T09:57:25;-23050.19;;;20.99;100.00
5296;BME280;2670;42.720;23.336;2022-09-04T10:00:08;-23051.78;;;21.05;100.00
5296;BME280;2670;42.720;23.336;2022-09-04T10:06:07;-23060.72;;;21.36;100.00
5296;BME280;2670;42.720;23.336;2022-09-04T10:09:05;-23065.53;;;21.53;100.00
5296;BME280;2670;42.720;23.336;2022-09-04T10:12:04;-23074.28;;;21.83;100.00
5296;BME280;2670;42.720;23.336;2022-09-04T10:15:03;-23074.72;;;21.85;100.00
5296;BME280;2670;42.720;23.336;2022-09-04T10:17:52;-23080.44;;;22.05;97.96
5296;BME280;2670;42.720;23.336;2022-09-04T10:20:48;-23074.72;;;21.85;100.00
5296;BME280;2670;42.720;23.336;2022-09-04T10:29:49;-23087.44;;;22.29;99.75
5296;BME280;2670;42.720;23.336;2022-09-04T10:35:40;-23093.41;;;22.50;96.72
5296;BME280;2670;42.720;23.336;2022-09-04T10:38:24;-23093.56;;;22.51;96.06
5296;BME280;2670;42.720;23.336;2022-09-04T10:41:19;-23089.47;;;22.36;100.00
5296;BME280;2670;42.720;23.336;2022-09-04T10:44:05;-23088.47;;;22.33;100.00
5296;BME280;2670;42.720;23.336;2022-09-04T10:46:41;-23085.09;;;22.21;100.00
5296;BME280;2670;42.720;23.336;2022-09-04T10:49:39;-23085.53;;;22.23;100.00
5296;BME280;2670;42.720;23.336;2022-09-04T10:52:22;-23087.59;;;22.30;100.00
5296;BME280;2670;42.720;23.336;2022-09-04T10:55:29;-23104.34;;;22.88;94.99
5296;BME280;2670;42.720;23.336;2022-09-04T11:04:18;-23110.34;;;23.09;100.00
5296;BME280;2670;42.720;23.336;2022-09-04T11:07:16;-23108.44;;;23.03;99.62
5296;BME280;2670;42.720;23.336;2022-09-04T11:10:01;-23114.41;;;23.24;95.93
5296;BME280;2670;42.720;23.336;2022-09-04T11:12:58;-23112.97;;;23.19;99.56
5296;BME280;2670;42.720;23.336;2022-09-04T11:19:08;-23126.66;;;23.67;96.69
5296;BME280;2670;42.720;23.336;2022-09-04T11:22:07;-23126.22;;;23.65;96.03
5296;BME280;2670;42.720;23.336;2022-09-04T11:24:56;-23128.84;;;23.74;93.35
5296;BME280;2670;42.720;23.336;2022-09-04T11:30:58;-23129.72;;;23.77;92.16
5296;BME280;2670;42.720;23.336;2022-09-04T11:37:00;-23127.09;;;23.68;97.83
5296;BME280;2670;42.720;23.336;2022-09-04T11:42:39;-23138.91;;;24.09;91.96
5296;BME280;2670;42.720;23.336;2022-09-04T11:45:37;-23137.00;;;24.03;93.13
5296;BME280;2670;42.720;23.336;2022-09-04T11:48:51;-23135.69;;;23.98;89.64
5296;BME280;2670;42.720;23.336;2022-09-04T11:51:56;-23138.59;;;24.08;91.99
5296;BME280;2670;42.720;23.336;2022-09-04T11:57:39;-23139.47;;;24.11;89.35
5296;BME280;2670;42.720;23.336;2022-09-04T12:00:12;-23142.53;;;24.22;85.91
5296;BME280;2670;42.720;23.336;2022-09-04T12:03:06;-23142.09;;;24.21;86.18
5296;BME280;2670;42.720;23.336;2022-09-04T12:05:46;-23144.44;;;24.29;86.61
5296;BME280;2670;42.720;23.336;2022-09-04T12:08:33;-23149.22;;;24.46;82.53
5296;BME280;2670;42.720;23.336;2022-09-04T12:11:34;-23152.16;;;24.56;81.17
5296;BME280;2670;42.720;23.336;2022-09-04T12:14:18;-23151.41;;;24.53;83.83
5296;BME280;2670;42.720;23.336;2022-09-04T12:17:17;-23156.06;;;24.70;78.34
5296;BME280;2670;42.720;23.336;2022-09-04T12:26:19;-23152.88;;;24.58;76.94
5296;BME280;2670;42.720;23.336;2022-09-04T12:29:01;-23154.19;;;24.63;75.75
5296;BME280;2670;42.720;23.336;2022-09-04T12:31:50;-23151.28;;;24.53;78.53
5296;BME280;2670;42.720;23.336;2022-09-04T12:35:06;-23154.31;;;24.64;72.73
5296;BME280;2670;42.720;23.336;2022-09-04T12:40:47;-23156.94;;;24.73;75.89
5296;BME280;2670;42.720;23.336;2022-09-04T12:43:29;-23151.56;;;24.54;74.01
5296;BME280;2670;42.720;23.336;2022-09-04T12:46:16;-23149.97;;;24.48;75.74
5296;BME280;2670;42.720;23.336;2022-09-04T12:48:55;-23149.09;;;24.45;77.34
5296;BME280;2670;42.720;23.336;2022-09-04T12:51:28;-23147.63;;;24.40;71.72
5296;BME280;2670;42.720;23.336;2022-09-04T12:54:24;-23150.53;;;24.50;70.53
5296;BME280;2670;42.720;23.336;2022-09-04T12:57:10;-23149.22;;;24.46;67.95
5296;BME280;2670;42.720;23.336;2022-09-04T12:59:55;-23145.44;;;24.32;67.45
5296;BME280;2670;42.720;23.336;2022-09-04T13:02:36;-23142.97;;;24.24;70.87
5296;BME280;2670;42.720;23.336;2022-09-04T13:08:11;-23144.72;;;24.30;70.45
5296;BME280;2670;42.720;23.336;2022-09-04T13:10:50;-23147.50;;;24.40;68.82
5296;BME280;2670;42.720;23.336;2022-09-04T13:13:25;-23147.19;;;24.39;71.94
5296;BME280;2670;42.720;23.336;2022-09-04T13:15:59;-23145.00;;;24.31;77.58
5296;BME280;2670;42.720;23.336;2022-09-04T13:18:41;-23144.56;;;24.29;81.49
5296;BME280;2670;42.720;23.336;2022-09-04T13:21:23;-23150.25;;;24.49;84.31
5296;BME280;2670;42.720;23.336;2022-09-04T13:24:03;-23149.81;;;24.48;83.47
5296;BME280;2670;42.720;23.336;2022-09-04T13:26:45;-23143.69;;;24.26;84.87
5296;BME280;2670;42.720;23.336;2022-09-04T13:29:25;-23143.41;;;24.25;84.38
5296;BME280;2670;42.720;23.336;2022-09-04T13:32:06;-23141.81;;;24.20;84.94
5296;BME280;2670;42.720;23.336;2022-09-04T13:34:51;-23139.78;;;24.13;86.84
5296;BME280;2670;42.720;23.336;2022-09-04T13:37:27;-23139.19;;;24.10;86.56
5296;BME280;2670;42.720;23.336;2022-09-04T13:40:05;-23139.03;;;24.10;85.86
5296;BME280;2670;42.720;23.336;2022-09-04T13:43:09;-23137.72;;;24.05;86.62
5296;BME280;2670;42.720;23.336;2022-09-04T13:45:41;-23140.63;;;24.16;86.00
5296;BME280;2670;42.720;23.336;2022-09-04T13:48:17;-23139.63;;;24.12;86.62
5296;BME280;2670;42.720;23.336;2022-09-04T13:50:50;-23143.84;;;24.27;83.06
5296;BME280;2670;42.720;23.336;2022-09-04T13:53:24;-23147.63;;;24.40;81.96
5296;BME280;2670;42.720;23.336;2022-09-04T13:55:54;-23145.44;;;24.32;83.96
5296;BME280;2670;42.720;23.336;2022-09-04T13:58:27;-23142.81;;;24.23;82.86
5296;BME280;2670;42.720;23.336;2022-09-04T14:00:58;-23136.28;;;24.00;85.44
5296;BME280;2670;42.720;23.336;2022-09-04T14:03:33;-23136.13;;;24.00;84.13
5296;BME280;2670;42.720;23.336;2022-09-04T14:06:02;-23133.81;;;23.92;86.00
5296;BME280;2670;42.720;23.336;2022-09-04T14:08:31;-23133.22;;;23.90;83.42
5296;BME280;2670;42.720;23.336;2022-09-04T14:11:10;-23130.59;;;23.80;83.85
5296;BME280;2670;42.720;23.336;2022-09-04T14:13:59;-23127.09;;;23.68;83.69
5296;BME280;2670;42.720;23.336;2022-09-04T14:16:36;-23127.09;;;23.68;82.68
5296;BME280;2670;42.720;23.336;2022-09-04T14:19:15;-23125.06;;;23.61;83.95
5296;BME280;2670;42.720;23.336;2022-09-04T14:22:06;-23123.88;;;23.57;83.48
5296;BME280;2670;42.720;23.336;2022-09-04T14:24:40;-23122.28;;;23.51;84.45
5296;BME280;2670;42.720;23.336;2022-09-04T14:27:15;-23123.88;;;23.57;84.05
5296;BME280;2670;42.720;23.336;2022-09-04T14:29:54;-23124.19;;;23.58;82.85
5296;BME280;2670;42.720;23.336;2022-09-04T14:32:27;-23120.69;;;23.46;84.77
5296;BME280;2670;42.720;23.336;2022-09-04T14:35:03;-23122.88;;;23.53;82.97
5296;BME280;2670;42.720;23.336;2022-09-04T14:40:24;-23121.72;;;23.49;82.23
5296;BME280;2670;42.720;23.336;2022-09-04T14:42:56;-23123.59;;;23.56;82.11
5296;BME280;2670;42.720;23.336;2022-09-04T14:45:47;-23125.19;;;23.61;83.09
5296;BME280;2670;42.720;23.336;2022-09-04T14:48:16;-23125.63;;;23.63;85.03
5296;BME280;2670;42.720;23.336;2022-09-04T14:50:51;-23129.00;;;23.75;85.54
5296;BME280;2670;42.720;23.336;2022-09-04T14:53:21;-23129.16;;;23.75;85.30
5296;BME280;2670;42.720;23.336;2022-09-04T14:56:21;-23130.88;;;23.81;84.60
5296;BME280;2670;42.720;23.336;2022-09-04T14:58:53;-23127.84;;;23.71;86.32
5296;BME280;2670;42.720;23.336;2022-09-04T15:01:23;-23125.63;;;23.63;87.31
5296;BME280;2670;42.720;23.336;2022-09-04T15:03:54;-23124.03;;;23.57;88.74
5296;BME280;2670;42.720;23.336;2022-09-04T15:06:28;-23126.81;;;23.67;84.04
5296;BME280;2670;42.720;23.336;2022-09-04T15:09:16;-23124.91;;;23.60;84.07
5296;BME280;2670;42.720;23.336;2022-09-04T15:11:44;-23122.00;;;23.50;83.85
5296;BME280;2670;42.720;23.336;2022-09-04T15:14:18;-23116.03;;;23.29;84.37
5296;BME280;2670;42.720;23.336;2022-09-04T15:16:51;-23111.66;;;23.14;86.57
5296;BME280;2670;42.720;23.336;2022-09-04T15:19:39;-23108.16;;;23.02;87.80
5296;BME280;2670;42.720;23.336;2022-09-04T15:22:16;-23104.22;;;22.88;89.79
5296;BME280;2670;42.720;23.336;2022-09-04T15:24:51;-23103.47;;;22.85;89.72
5296;BME280;2670;42.720;23.336;2022-09-04T15:27:23;-23101.00;;;22.77;91.26
5296;BME280;2670;42.720;23.336;2022-09-04T15:30:01;-23100.84;;;22.76;90.36
5296;BME280;2670;42.720;23.336;2022-09-04T15:32:32;-23101.28;;;22.78;91.25
5296;BME280;2670;42.720;23.336;2022-09-04T15:35:22;-23096.47;;;22.61;90.28
5296;BME280;2670;42.720;23.336;2022-09-04T15:38:04;-23092.97;;;22.49;89.89
5296;BME280;2670;42.720;23.336;2022-09-04T15:40:34;-23090.50;;;22.40;90.21
5296;BME280;2670;42.720;23.336;2022-09-04T15:43:10;-23086.56;;;22.26;91.02
5296;BME280;2670;42.720;23.336;2022-09-04T15:45:43;-23086.72;;;22.27;90.71
5296;BME280;2670;42.720;23.336;2022-09-04T15:48:19;-23083.06;;;22.14;91.62
5296;BME280;2670;42.720;23.336;2022-09-04T15:51:11;-23078.97;;;22.00;94.32
5296;BME280;2670;42.720;23.336;2022-09-04T15:53:50;-23078.09;;;21.97;93.40
5296;BME280;2670;42.720;23.336;2022-09-04T15:56:29;-23077.34;;;21.94;93.03